Pensacola, FL

8:13 AM CST en Diciembre 22, 2014 (GMT -0600)
east hills | Change Station
CLOSE
Current Station
Estación meteorológica personal
Location: Pensacola, FL
Altura: 60 ft
Estaciones meteorológicas cercanas

Alt 60 ft 30.43 °N, 87.20 °W | Updated 9 seconds ago

Lluvia
Lluvia
57.0 ° F
Sensación térmica 57.0 ° F
N
0.0
Viento Variable Viento desde Norte
Gusts 0.0 mph

Hoy
Alta -- | Baja -- ° F
--% Posibilidad de precipitaciones
Ayer
Alta -- | Baja -- ° F
Precip. -- pul
6:42 AM 4:53 PM
Luna nueva, 0% visible
Presión 29.90 pul
Visibilidad 6.0 Millas
Nubes Nubes dispersas 500 ft
Muy nublado 8500 ft
Nublado 10000 ft
Punto de rocío 56 ° F
Humedad 95%
Precipitaciones 0.00 pul
Espesor de la nieve No disponible.
UV 0 de una escala de 12
Polen 2.00 de una escala de 12
Calidad del aire No disponible.
Flu Activity No disponible.
SPECI KPNS 221409Z 05007KT 6SM RA BR SCT005 BKN085 OVC100 12/12 A2990 RMK AO2 LTG DSNT SE AND S P0002 T01170117 $

More Conditions Fewer Conditions

Presión 29.90 pul
Visibilidad 6.0 Millas
Nubes Nubes dispersas 500 ft
Muy nublado 8500 ft
Nublado 10000 ft
Punto de rocío 56 ° F
Humedad 95%
Precipitaciones 0.00 pul
Espesor de la nieve No disponible.
UV 0 de una escala de 12
Polen 2.00 de una escala de 12
Calidad del aire No disponible.
Flu Activity No disponible.
SPECI KPNS 221409Z 05007KT 6SM RA BR SCT005 BKN085 OVC100 12/12 A2990 RMK AO2 LTG DSNT SE AND S P0002 T01170117 $

More Conditions Fewer Conditions

10-Day Weather Forecast

Almanac

Astronomía

Dec. 22, 2014 Salida Puesta
Hora real
Crepúsculo civil
Crepúsculo náutico
Crepúsculo astronómico
Luna
Horas de luz
Horas de luz
Tomorrow will be .
, % of the Moon is Illuminated

Extremos de hoy

Máximos del estado Bajos del estado

Community

WunderPhotos

Upload Photos

1,779,602 ¡fotos cargadas!

WunderBlogs® & News

Nearby

Calidad del aire

  Calidad del aire Índice AQ Contaminante
Not available.

Grosos de nieve

Estación Profundido Altura

Actividad de terremotos

Ciudad Distance Mag. Tiempo y dato
Magnitud mínima muestra es 2,5.

Temperaturas de aguas costeras

Lugar Temperatura

Estaciones meteorológicas cercanas